Time;durP1;ratioP1;P1;durP2;ratioP2;P2;SDS_P1;SDS_P2;PMS_P1;PMS_P2;Temp;Humidity;BMP_temperature;BMP_pressure;BME280_temperature;BME280_humidity;BME280_pressure;Samples;Min_cycle;Max_cycle;Signal;HPM_P1;HPM_P2
2022/10/31 00:00:17;;;;;;;16.77;11.00;;;14.40;99.90;;;;;;5036067;28;20207;-89
2022/10/31 00:02:44;;;;;;;16.20;11.53;;;14.40;99.90;;;;;;5036348;28;20195;-89
2022/10/31 00:05:11;;;;;;;24.20;11.07;;;14.30;99.90;;;;;;5035867;28;20238;-89
2022/10/31 00:07:39;;;;;;;20.93;11.27;;;14.20;99.90;;;;;;5036224;28;20210;-93
2022/10/31 00:10:07;;;;;;;14.73;11.60;;;14.20;99.90;;;;;;5036005;28;20207;-89
2022/10/31 00:12:33;;;;;;;16.83;11.13;;;14.10;99.90;;;;;;5036041;28;20203;-92
2022/10/31 00:15:00;;;;;;;17.10;11.90;;;14.10;99.90;;;;;;5036821;28;20199;-89
2022/10/31 00:17:28;;;;;;;17.27;11.53;;;14.00;99.90;;;;;;5036669;28;20306;-92
2022/10/31 00:19:57;;;;;;;18.53;10.80;;;14.10;99.90;;;;;;5019157;28;20207;-93
2022/10/31 00:22:24;;;;;;;15.93;11.80;;;14.10;99.90;;;;;;5019858;28;20255;-93
2022/10/31 00:24:51;;;;;;;20.30;11.70;;;14.00;99.90;;;;;;5036093;28;20258;-91
2022/10/31 00:27:18;;;;;;;13.83;11.30;;;14.10;99.90;;;;;;5035695;28;20194;-88
2022/10/31 00:29:44;;;;;;;18.23;11.83;;;13.90;99.90;;;;;;5036548;28;20207;-90
2022/10/31 00:32:11;;;;;;;20.80;12.80;;;13.90;99.90;;;;;;5037043;28;20685;-90
2022/10/31 00:34:39;;;;;;;19.83;11.80;;;13.80;99.90;;;;;;5036275;28;20203;-90
2022/10/31 00:37:07;;;;;;;15.67;11.77;;;13.80;99.90;;;;;;5018948;28;20282;-89
2022/10/31 00:39:34;;;;;;;17.33;11.80;;;13.80;99.90;;;;;;5035262;28;20207;-90
2022/10/31 00:42:01;;;;;;;18.50;11.43;;;13.80;99.90;;;;;;5018385;28;20395;-92
2022/10/31 00:44:27;;;;;;;19.73;11.77;;;13.80;99.90;;;;;;5036189;28;20207;-92
2022/10/31 00:46:54;;;;;;;21.67;12.73;;;13.70;99.90;;;;;;5034753;28;20231;-89
2022/10/31 00:49:21;;;;;;;20.33;12.13;;;13.60;99.90;;;;;;5034949;28;20211;-92
2022/10/31 00:51:55;;;;;;;23.10;13.68;;;13.60;99.90;;;;;;5034902;28;20430;-90
2022/10/31 00:54:21;;;;;;;16.20;12.27;;;13.60;99.90;;;;;;5035308;28;20221;-91
2022/10/31 00:56:48;;;;;;;22.70;12.97;;;13.60;99.90;;;;;;5035205;28;20211;-91
2022/10/31 00:59:15;;;;;;;22.53;13.87;;;13.60;99.90;;;;;;5035724;28;20203;-89
2022/10/31 01:01:42;;;;;;;19.20;11.77;;;13.60;99.90;;;;;;5035547;28;20214;-93
2022/10/31 01:04:08;;;;;;;21.07;12.30;;;13.50;99.90;;;;;;5035469;28;20199;-90
2022/10/31 01:06:35;;;;;;;23.27;12.17;;;13.50;99.90;;;;;;5034800;28;20622;-93
2022/10/31 01:09:03;;;;;;;21.03;11.90;;;13.50;99.90;;;;;;5034917;28;20187;-93
2022/10/31 01:11:30;;;;;;;22.43;12.50;;;13.50;99.90;;;;;;5035216;28;20577;-90
2022/10/31 01:13:57;;;;;;;26.10;12.47;;;13.50;99.90;;;;;;5035495;28;20203;-93
2022/10/31 01:16:27;;;;;;;20.93;12.47;;;13.50;99.90;;;;;;5035209;28;20215;-92
2022/10/31 01:18:55;;;;;;;21.83;12.63;;;13.50;99.90;;;;;;5034567;28;20240;-92
2022/10/31 01:21:27;;;;;;;19.20;12.10;;;13.40;99.90;;;;;;5017203;28;20211;-92
2022/10/31 01:23:56;;;;;;;19.40;12.13;;;13.40;99.90;;;;;;5034785;28;20203;-93
2022/10/31 01:26:26;;;;;;;21.97;12.77;;;13.30;99.90;;;;;;5017120;28;20689;-92
2022/10/31 01:28:56;;;;;;;21.07;12.73;;;13.20;99.90;;;;;;5034448;28;20206;-90
2022/10/31 01:31:25;;;;;;;20.03;11.17;;;13.20;99.90;;;;;;5034231;28;20207;-90
2022/10/31 01:33:52;;;;;;;21.67;12.13;;;13.20;99.90;;;;;;5034109;28;20234;-93
2022/10/31 01:36:21;;;;;;;21.50;12.47;;;13.20;99.90;;;;;;5034419;28;20206;-93
2022/10/31 01:38:49;;;;;;;22.17;13.60;;;13.20;99.90;;;;;;5034499;28;20206;-93
2022/10/31 01:41:20;;;;;;;26.17;12.47;;;13.20;99.90;;;;;;5016759;28;20252;-93
2022/10/31 01:43:52;;;;;;;16.93;11.57;;;13.20;99.90;;;;;;5034320;28;20206;-93
2022/10/31 01:46:23;;;;;;;20.07;11.63;;;13.10;99.90;;;;;;5034354;28;20226;-91
2022/10/31 01:48:52;;;;;;;17.67;11.80;;;13.10;99.90;;;;;;5034231;28;20210;-92
2022/10/31 01:51:21;;;;;;;21.30;13.77;;;13.00;99.90;;;;;;5033828;28;20917;-91
2022/10/31 01:53:49;;;;;;;19.53;12.47;;;13.00;99.90;;;;;;5034103;28;20211;-91
2022/10/31 01:56:18;;;;;;;21.90;12.67;;;13.00;99.90;;;;;;5034533;28;20300;-93
2022/10/31 01:58:48;;;;;;;18.80;12.00;;;13.00;99.90;;;;;;5034069;28;20214;-91
2022/10/31 02:01:18;;;;;;;21.30;13.03;;;13.00;99.90;;;;;;5034164;28;20190;-94
2022/10/31 02:03:47;;;;;;;19.53;11.70;;;13.00;99.90;;;;;;5034204;28;20207;-92
2022/10/31 02:06:22;;;;;;;19.47;12.37;;;12.90;99.90;;;;;;5037575;28;20237;-93
2022/10/31 02:08:50;;;;;;;23.07;12.63;;;12.90;99.90;;;;;;5037164;28;20229;-90
2022/10/31 02:11:17;;;;;;;17.63;11.60;;;12.80;99.90;;;;;;5037295;28;20202;-93
2022/10/31 02:13:44;;;;;;;18.30;11.60;;;13.00;99.90;;;;;;5019582;28;20232;-93
2022/10/31 02:16:13;;;;;;;20.10;12.53;;;12.90;99.90;;;;;;5033717;28;20206;-94
2022/10/31 02:18:42;;;;;;;18.87;11.77;;;12.80;99.90;;;;;;5034185;28;20235;-93
2022/10/31 02:21:15;;;;;;;19.67;12.13;;;12.80;99.90;;;;;;5034963;28;20616;-93
2022/10/31 02:24:24;;;;;;;20.57;12.53;;;12.80;99.90;;;;;;5034469;28;20225;-94
2022/10/31 02:26:57;;;;;;;17.67;11.13;;;12.70;99.90;;;;;;5016581;28;20231;-93
2022/10/31 02:29:49;;;;;;;21.63;12.13;;;12.70;99.90;;;;;;5034197;28;20209;-94
2022/10/31 02:32:23;;;;;;;17.00;11.90;;;12.70;99.90;;;;;;5012831;28;20205;-91
2022/10/31 02:34:58;;;;;;;17.47;11.47;;;12.70;99.90;;;;;;5034022;28;20680;-91
2022/10/31 02:37:30;;;;;;;15.17;12.03;;;12.60;99.90;;;;;;5034558;28;20229;-93
2022/10/31 02:40:06;;;;;;;21.20;12.67;;;12.60;99.90;;;;;;5033983;28;20210;-94
2022/10/31 02:42:37;;;;;;;17.13;12.30;;;12.60;99.90;;;;;;5033922;28;20699;-93
2022/10/31 02:45:11;;;;;;;18.33;12.43;;;12.60;99.90;;;;;;5033510;28;20569;-94
2022/10/31 02:47:45;;;;;;;25.60;16.75;;;12.60;99.90;;;;;;5036995;28;20446;-92
2022/10/31 02:50:17;;;;;;;24.97;13.97;;;12.60;99.90;;;;;;5037994;28;20217;-93
2022/10/31 02:52:43;;;;;;;20.43;12.77;;;12.60;99.90;;;;;;5037607;28;20210;-95
2022/10/31 02:55:13;;;;;;;18.57;11.73;;;12.60;99.90;;;;;;5038093;28;20211;-92
2022/10/31 02:57:43;;;;;;;17.20;12.77;;;12.50;99.90;;;;;;5038542;28;20559;-92
2022/10/31 03:00:11;;;;;;;18.93;12.37;;;12.60;99.90;;;;;;5037336;28;20206;-94
2022/10/31 03:03:01;;;;;;;18.33;12.53;;;12.50;99.90;;;;;;5020284;28;20214;-95
2022/10/31 03:05:42;;;;;;;18.97;11.60;;;12.60;99.90;;;;;;5037991;28;20206;-94
2022/10/31 03:08:16;;;;;;;16.40;11.70;;;12.50;99.90;;;;;;5037301;28;20575;-92
2022/10/31 03:10:48;;;;;;;21.63;12.87;;;12.40;99.90;;;;;;5037925;28;20205;-93
2022/10/31 03:13:25;;;;;;;25.53;11.93;;;12.40;99.90;;;;;;5037368;28;20209;-92
2022/10/31 03:15:56;;;;;;;24.23;12.07;;;12.40;99.90;;;;;;5037270;28;20213;-93
2022/10/31 03:18:28;;;;;;;19.07;11.83;;;12.30;99.90;;;;;;5037979;28;20242;-94
2022/10/31 03:21:02;;;;;;;15.47;11.50;;;12.30;99.90;;;;;;5038516;28;20259;-91
2022/10/31 03:23:31;;;;;;;18.40;12.13;;;12.30;99.90;;;;;;5021447;28;20559;-93
2022/10/31 03:26:01;;;;;;;18.07;12.20;;;12.20;99.90;;;;;;5004297;28;20238;-93
2022/10/31 03:28:36;;;;;;;21.10;12.80;;;12.20;99.90;;;;;;5038865;28;20213;-91
2022/10/31 03:31:05;;;;;;;25.33;12.23;;;12.30;99.90;;;;;;5045841;28;20603;-92
2022/10/31 03:33:37;;;;;;;21.20;12.80;;;12.30;99.90;;;;;;5046619;28;20218;-93
2022/10/31 03:36:08;;;;;;;26.27;13.10;;;12.20;99.90;;;;;;5042222;28;20210;-91
2022/10/31 03:38:36;;;;;;;19.97;12.67;;;12.20;99.90;;;;;;5041542;28;20202;-92
2022/10/31 03:41:06;;;;;;;22.70;13.50;;;12.20;99.90;;;;;;5042623;28;20668;-93
2022/10/31 03:43:38;;;;;;;21.50;14.35;;;12.30;99.90;;;;;;5041831;28;20433;-92
2022/10/31 03:46:06;;;;;;;22.23;13.10;;;12.40;99.90;;;;;;5037756;28;20230;-93
2022/10/31 03:48:35;;;;;;;22.10;12.30;;;12.30;99.90;;;;;;5036817;28;20213;-93
2022/10/31 03:51:08;;;;;;;22.80;12.97;;;12.30;99.90;;;;;;5036897;28;20710;-95
2022/10/31 03:53:39;;;;;;;19.83;12.57;;;12.30;99.90;;;;;;5036602;28;20213;-94
2022/10/31 03:56:12;;;;;;;18.27;12.93;;;12.30;99.90;;;;;;5036471;28;20213;-93
2022/10/31 03:58:45;;;;;;;19.43;12.67;;;12.30;99.90;;;;;;5018024;28;20232;-93
2022/10/31 04:01:16;;;;;;;22.80;12.50;;;12.30;99.90;;;;;;5036629;28;20194;-94
2022/10/31 04:03:45;;;;;;;19.40;12.13;;;12.10;99.90;;;;;;5036271;28;20207;-93
2022/10/31 04:06:15;;;;;;;21.73;13.07;;;12.10;99.90;;;;;;5036621;28;20228;-93
2022/10/31 04:08:48;;;;;;;14.80;11.53;;;12.00;99.90;;;;;;5002651;28;20272;-93
2022/10/31 04:11:19;;;;;;;20.43;11.50;;;12.00;99.90;;;;;;5035795;28;20212;-93
2022/10/31 04:13:48;;;;;;;20.80;13.87;;;12.00;99.90;;;;;;5018172;28;20514;-93
2022/10/31 04:16:17;;;;;;;18.87;12.07;;;12.00;99.90;;;;;;5035768;28;20214;-93
2022/10/31 04:18:45;;;;;;;18.50;11.27;;;12.00;99.90;;;;;;5035877;28;20240;-93
2022/10/31 04:21:13;;;;;;;16.10;10.80;;;11.80;99.90;;;;;;5035735;28;20214;-92
2022/10/31 04:23:42;;;;;;;15.63;10.70;;;11.80;99.90;;;;;;5035584;28;20210;-93
2022/10/31 04:26:12;;;;;;;18.50;11.40;;;11.80;99.90;;;;;;5035852;28;20209;-93
2022/10/31 04:28:39;;;;;;;18.57;10.40;;;11.80;99.90;;;;;;5036209;28;20206;-93
2022/10/31 04:31:09;;;;;;;20.70;11.70;;;11.80;99.90;;;;;;5036267;28;20209;-93
2022/10/31 04:33:37;;;;;;;16.63;11.17;;;11.70;99.90;;;;;;5036096;28;20189;-93
2022/10/31 04:36:06;;;;;;;18.67;11.97;;;11.70;99.90;;;;;;5018969;28;20302;-94
2022/10/31 04:38:35;;;;;;;15.77;11.60;;;11.70;99.90;;;;;;5036286;28;20215;-94
2022/10/31 04:41:02;;;;;;;18.73;12.00;;;11.70;99.90;;;;;;5035519;28;20563;-94
2022/10/31 04:43:31;;;;;;;16.90;11.30;;;11.70;99.90;;;;;;5035704;28;20218;-94
2022/10/31 04:45:58;;;;;;;18.67;10.93;;;11.60;99.90;;;;;;5035759;28;20205;-92
2022/10/31 04:48:25;;;;;;;17.50;10.77;;;11.60;99.90;;;;;;5036065;28;20592;-92
2022/10/31 04:50:52;;;;;;;16.00;11.03;;;11.60;99.90;;;;;;5036420;28;20554;-93
2022/10/31 04:53:22;;;;;;;17.40;10.90;;;11.60;99.90;;;;;;5036013;28;20213;-93
2022/10/31 04:55:48;;;;;;;17.70;11.00;;;11.60;99.90;;;;;;5034843;28;20663;-93
2022/10/31 04:58:15;;;;;;;19.63;11.57;;;11.60;99.90;;;;;;5035392;28;20217;-94
2022/10/31 05:00:42;;;;;;;16.83;11.63;;;11.50;99.90;;;;;;5035354;28;20206;-93
2022/10/31 05:03:08;;;;;;;15.97;10.43;;;11.50;99.90;;;;;;5035094;28;20213;-94
2022/10/31 05:05:35;;;;;;;16.40;11.20;;;11.50;99.90;;;;;;5035239;28;20545;-92
2022/10/31 05:08:03;;;;;;;19.53;10.97;;;11.50;99.90;;;;;;5034723;28;20243;-93
2022/10/31 05:10:32;;;;;;;20.40;10.77;;;11.30;99.90;;;;;;5034357;28;20209;-94
2022/10/31 05:13:00;;;;;;;17.00;11.90;;;11.40;99.90;;;;;;5035483;28;20196;-93
2022/10/31 05:15:29;;;;;;;22.30;12.20;;;11.40;99.90;;;;;;5035455;28;20204;-94
2022/10/31 05:17:56;;;;;;;18.03;11.40;;;11.30;99.90;;;;;;5034439;28;20241;-94
2022/10/31 05:20:24;;;;;;;19.70;12.70;;;11.30;99.90;;;;;;5035019;28;20220;-94
2022/10/31 05:22:53;;;;;;;21.73;13.23;;;11.40;99.90;;;;;;5035089;28;20209;-94
2022/10/31 05:25:21;;;;;;;23.03;13.17;;;11.50;99.90;;;;;;5034402;28;20219;-94
2022/10/31 05:27:52;;;;;;;23.80;13.33;;;11.50;99.90;;;;;;5034631;28;20227;-94
2022/10/31 05:30:21;;;;;;;18.93;12.33;;;11.50;99.90;;;;;;5034613;28;20215;-94
2022/10/31 05:32:50;;;;;;;19.00;12.37;;;11.50;99.90;;;;;;5034328;28;20232;-94
2022/10/31 05:35:19;;;;;;;17.83;12.10;;;11.50;99.90;;;;;;5016964;28;20200;-93
2022/10/31 05:37:47;;;;;;;23.90;13.73;;;11.50;99.90;;;;;;5034345;28;20200;-94
2022/10/31 05:40:16;;;;;;;19.13;12.20;;;11.60;99.90;;;;;;5034913;28;20239;-93
2022/10/31 05:42:44;;;;;;;25.87;13.83;;;11.70;99.90;;;;;;5034498;28;20217;-94
2022/10/31 05:45:15;;;;;;;29.05;18.23;;;11.70;99.90;;;;;;5033788;28;20446;-95
2022/10/31 05:47:42;;;;;;;21.17;14.93;;;11.80;99.90;;;;;;5034325;28;20233;-93
2022/10/31 05:50:10;;;;;;;23.97;13.73;;;11.90;99.90;;;;;;5033970;28;20664;-92
2022/10/31 05:52:37;;;;;;;19.80;13.67;;;11.90;99.90;;;;;;5034486;28;20202;-94
2022/10/31 05:55:05;;;;;;;23.20;13.87;;;11.90;99.90;;;;;;5034324;28;20200;-94
2022/10/31 05:57:33;;;;;;;24.73;14.17;;;11.90;99.90;;;;;;5034479;28;20224;-94
2022/10/31 06:00:00;;;;;;;24.50;13.97;;;11.90;99.90;;;;;;5034714;28;20190;-95
2022/10/31 06:02:34;;;;;;;20.03;14.13;;;12.00;99.90;;;;;;5034498;28;20545;-92
2022/10/31 06:05:01;;;;;;;21.13;13.17;;;11.90;99.90;;;;;;5034334;28;20206;-93
2022/10/31 06:07:27;;;;;;;23.83;13.20;;;11.90;99.90;;;;;;5033903;28;20696;-94
2022/10/31 06:09:54;;;;;;;19.33;13.87;;;11.90;99.90;;;;;;5034106;28;20216;-94
2022/10/31 06:12:21;;;;;;;20.77;14.00;;;12.00;99.90;;;;;;5033928;28;20675;-93
2022/10/31 06:14:48;;;;;;;49.77;15.90;;;12.10;99.90;;;;;;5016864;28;20210;-93
2022/10/31 06:17:15;;;;;;;24.17;14.17;;;12.00;99.90;;;;;;5034115;28;20237;-93
2022/10/31 06:19:43;;;;;;;22.00;13.37;;;12.10;99.90;;;;;;5034151;28;20236;-94
2022/10/31 06:22:11;;;;;;;24.40;14.23;;;12.20;99.90;;;;;;5037312;28;20217;-93
2022/10/31 06:24:39;;;;;;;20.70;13.77;;;12.20;99.90;;;;;;5038075;28;20297;-93
2022/10/31 06:27:06;;;;;;;21.57;14.07;;;12.20;99.90;;;;;;5038395;28;20226;-93
2022/10/31 06:29:33;;;;;;;24.03;13.57;;;12.20;99.90;;;;;;5037826;28;20213;-94
2022/10/31 06:31:59;;;;;;;20.30;13.70;;;12.20;99.90;;;;;;5020568;28;20689;-95
2022/10/31 06:34:26;;;;;;;21.43;12.77;;;12.20;99.90;;;;;;5037505;28;20688;-90
2022/10/31 06:36:54;;;;;;;23.37;14.27;;;12.20;99.90;;;;;;5037873;28;20206;-94
2022/10/31 06:39:21;;;;;;;22.13;14.43;;;12.30;99.90;;;;;;5038252;28;20210;-95
2022/10/31 06:41:49;;;;;;;20.50;14.23;;;12.30;99.90;;;;;;5038951;28;20195;-95
2022/10/31 06:44:16;;;;;;;19.43;13.43;;;12.30;99.90;;;;;;5032847;28;20209;-94
2022/10/31 06:46:43;;;;;;;22.67;13.97;;;12.40;99.90;;;;;;5038186;28;20213;-95
2022/10/31 06:49:10;;;;;;;20.47;13.97;;;12.30;99.90;;;;;;5038506;28;20550;-93
2022/10/31 06:51:37;;;;;;;20.43;13.60;;;12.30;99.90;;;;;;5038059;28;20637;-95
2022/10/31 06:54:05;;;;;;;21.83;13.60;;;12.40;99.90;;;;;;5037977;28;20223;-94
2022/10/31 06:56:33;;;;;;;17.50;12.70;;;12.40;99.90;;;;;;5038069;28;20221;-95
2022/10/31 06:58:59;;;;;;;20.67;13.00;;;12.50;99.90;;;;;;5038170;28;20579;-94
2022/10/31 07:01:27;;;;;;;21.33;14.03;;;12.60;99.90;;;;;;5037622;28;20212;-94
2022/10/31 07:03:53;;;;;;;18.60;13.33;;;12.60;99.90;;;;;;5004429;28;20237;-92
2022/10/31 07:06:20;;;;;;;18.10;13.10;;;12.60;99.90;;;;;;5037711;28;20192;-91
2022/10/31 07:08:48;;;;;;;17.87;12.73;;;12.70;99.90;;;;;;5020540;28;20238;-92
2022/10/31 07:11:16;;;;;;;26.00;13.93;;;12.70;99.90;;;;;;5037864;28;20210;-93
2022/10/31 07:13:43;;;;;;;19.07;13.80;;;12.80;99.90;;;;;;5037909;28;20214;-93
2022/10/31 07:16:11;;;;;;;19.37;13.30;;;12.90;99.90;;;;;;5037752;28;20191;-93
2022/10/31 07:18:38;;;;;;;22.23;14.03;;;12.80;99.90;;;;;;5037529;28;20693;-92
2022/10/31 07:21:06;;;;;;;20.27;13.50;;;12.90;99.90;;;;;;5037728;28;20214;-92
2022/10/31 07:23:33;;;;;;;18.03;13.20;;;12.90;99.90;;;;;;5037288;28;20265;-95
2022/10/31 07:26:00;;;;;;;23.60;12.97;;;12.90;99.90;;;;;;5036956;28;20211;-91
2022/10/31 07:28:28;;;;;;;19.07;12.73;;;13.00;99.90;;;;;;5037425;28;20594;-92
2022/10/31 07:30:57;;;;;;;20.17;13.67;;;12.90;99.90;;;;;;5036904;28;20207;-95
2022/10/31 07:33:25;;;;;;;25.13;13.97;;;12.90;99.90;;;;;;5036301;28;20203;-92
2022/10/31 07:35:53;;;;;;;17.20;12.93;;;12.90;99.90;;;;;;5019222;28;20206;-95
2022/10/31 07:38:20;;;;;;;19.27;13.23;;;13.00;99.90;;;;;;5019310;28;20203;-92
2022/10/31 07:40:51;;;;;;;22.50;13.87;;;13.00;99.90;;;;;;5020092;28;20208;-94
2022/10/31 07:43:18;;;;;;;19.57;13.90;;;13.10;99.90;;;;;;5037034;28;20253;-95
2022/10/31 07:45:50;;;;;;;20.27;13.13;;;13.10;99.90;;;;;;5037087;28;20237;-92
2022/10/31 07:48:17;;;;;;;19.90;13.40;;;13.00;99.90;;;;;;5036866;28;20235;-92
2022/10/31 07:50:44;;;;;;;18.80;13.73;;;13.10;99.90;;;;;;5036535;28;20590;-93
2022/10/31 07:53:12;;;;;;;20.30;13.23;;;13.10;99.90;;;;;;5019413;28;20210;-92
2022/10/31 07:55:39;;;;;;;18.60;13.87;;;13.20;99.90;;;;;;5019137;28;20552;-92
2022/10/31 07:58:08;;;;;;;24.40;14.17;;;13.10;99.90;;;;;;5036327;28;20203;-93
2022/10/31 08:00:38;;;;;;;20.63;13.67;;;13.20;99.90;;;;;;5036804;28;20195;-92
2022/10/31 08:03:08;;;;;;;17.67;13.07;;;13.30;99.90;;;;;;5036689;28;20261;-95
2022/10/31 08:05:36;;;;;;;18.50;12.87;;;13.50;99.90;;;;;;5036457;28;20203;-95
2022/10/31 08:08:02;;;;;;;28.57;14.27;;;13.40;99.90;;;;;;5036142;28;20218;-93
2022/10/31 08:10:29;;;;;;;19.37;13.77;;;13.50;99.90;;;;;;5037050;28;20199;-93
2022/10/31 08:12:58;;;;;;;22.37;14.17;;;13.40;99.90;;;;;;5036472;28;20198;-93
2022/10/31 08:15:26;;;;;;;15.40;12.43;;;13.60;99.90;;;;;;5036716;28;20195;-93
2022/10/31 08:17:53;;;;;;;19.83;12.33;;;13.60;99.90;;;;;;5036187;28;20243;-90
2022/10/31 08:20:22;;;;;;;18.43;13.03;;;13.80;99.90;;;;;;5036633;28;20191;-89
2022/10/31 08:22:56;;;;;;;18.83;12.90;;;13.70;99.90;;;;;;5036528;28;20200;-91
2022/10/31 08:25:25;;;;;;;20.00;13.80;;;13.80;99.90;;;;;;5036234;28;20200;-91
2022/10/31 08:27:52;;;;;;;19.27;12.87;;;13.70;99.90;;;;;;5036097;28;20697;-91
2022/10/31 08:30:19;;;;;;;18.67;12.73;;;13.60;99.90;;;;;;5019318;28;20247;-92
2022/10/31 08:32:46;;;;;;;21.73;12.60;;;13.70;99.90;;;;;;5035586;28;20211;-89
2022/10/31 08:35:13;;;;;;;20.77;13.10;;;13.90;99.90;;;;;;5036114;28;20236;-92
2022/10/31 08:37:45;;;;;;;17.97;12.67;;;14.10;99.90;;;;;;5035896;28;20219;-90
2022/10/31 08:40:12;;;;;;;22.43;12.53;;;14.30;99.90;;;;;;5035664;28;20216;-91
2022/10/31 08:42:41;;;;;;;19.13;13.27;;;14.40;99.90;;;;;;5035802;28;20210;-91
2022/10/31 08:45:11;;;;;;;21.50;13.33;;;14.40;99.90;;;;;;5019417;28;20330;-88
2022/10/31 08:47:43;;;;;;;23.07;12.90;;;14.30;99.90;;;;;;5036071;28;20639;-89
2022/10/31 08:50:16;;;;;;;16.57;12.77;;;14.20;99.90;;;;;;5036463;28;20211;-90
2022/10/31 08:52:48;;;;;;;18.00;12.70;;;14.20;99.90;;;;;;5036450;28;20211;-90
2022/10/31 08:55:21;;;;;;;18.73;13.33;;;14.30;99.90;;;;;;5036579;28;20280;-90
2022/10/31 08:57:48;;;;;;;19.20;12.87;;;14.50;99.90;;;;;;5036672;28;20207;-90
2022/10/31 09:00:17;;;;;;;24.83;15.10;;;14.60;99.90;;;;;;5018165;28;20218;-90
2022/10/31 09:02:44;;;;;;;25.20;15.57;;;14.70;99.90;;;;;;5036003;28;20188;-88
2022/10/31 09:05:10;;;;;;;25.03;14.67;;;14.70;99.90;;;;;;5015127;28;20204;-89
2022/10/31 09:07:37;;;;;;;19.77;13.33;;;14.70;99.90;;;;;;5032699;28;20200;-89
2022/10/31 09:10:06;;;;;;;20.43;12.80;;;14.80;99.90;;;;;;5035344;28;20211;-88
2022/10/31 09:12:33;;;;;;;25.33;13.73;;;14.80;99.90;;;;;;5034960;28;20200;-89
2022/10/31 09:15:00;;;;;;;19.30;13.60;;;14.40;99.90;;;;;;5035765;28;20306;-89
2022/10/31 09:17:28;;;;;;;18.33;13.77;;;14.60;99.90;;;;;;5036762;28;20243;-89
2022/10/31 09:19:55;;;;;;;24.17;14.03;;;14.20;99.90;;;;;;5039133;28;20212;-90
2022/10/31 09:22:22;;;;;;;21.87;12.80;;;14.10;99.90;;;;;;5038362;28;20206;-87
2022/10/31 09:24:49;;;;;;;17.20;12.70;;;14.10;99.90;;;;;;5036680;28;20210;-90
2022/10/31 09:27:20;;;;;;;21.27;13.47;;;14.20;99.90;;;;;;5018594;28;20326;-91
2022/10/31 09:29:47;;;;;;;20.83;14.07;;;14.30;99.90;;;;;;5035393;28;20259;-92
2022/10/31 09:32:14;;;;;;;17.57;12.90;;;14.50;99.90;;;;;;5036190;28;20210;-91
2022/10/31 09:34:40;;;;;;;18.83;13.20;;;14.60;99.90;;;;;;5035545;28;20206;-90
2022/10/31 09:37:07;;;;;;;23.37;13.07;;;14.60;99.90;;;;;;5035540;28;20219;-90
2022/10/31 09:39:36;;;;;;;20.27;13.60;;;14.60;99.90;;;;;;5018528;28;20208;-90
2022/10/31 09:42:23;;;;;;;22.17;13.10;;;14.80;99.90;;;;;;5035510;28;20207;-90
2022/10/31 09:45:01;;;;;;;22.13;13.93;;;14.80;99.90;;;;;;5034781;28;20204;-89
2022/10/31 09:47:39;;;;;;;17.83;13.77;;;14.80;99.90;;;;;;5035010;28;20212;-91
2022/10/31 09:50:18;;;;;;;26.03;14.73;;;14.80;99.90;;;;;;5035019;28;20202;-90
2022/10/31 09:52:54;;;;;;;26.08;18.10;;;14.90;99.90;;;;;;5034030;28;20431;-91
2022/10/31 09:55:28;;;;;;;24.70;15.10;;;15.00;99.90;;;;;;5034212;28;20204;-91
2022/10/31 09:57:55;;;;;;;21.63;14.37;;;15.10;99.90;;;;;;5035015;28;20208;-91
2022/10/31 10:00:24;;;;;;;21.50;15.17;;;15.20;99.90;;;;;;5034728;28;20205;-90
2022/10/31 10:02:57;;;;;;;21.07;13.97;;;15.20;99.90;;;;;;5034741;28;20211;-90
2022/10/31 10:05:30;;;;;;;21.40;14.67;;;15.10;99.90;;;;;;5034817;28;20205;-90
2022/10/31 10:08:08;;;;;;;22.93;14.57;;;15.10;99.90;;;;;;5034592;28;20215;-87
2022/10/31 10:10:47;;;;;;;25.50;14.90;;;15.10;99.90;;;;;;5034666;28;20216;-87
2022/10/31 10:13:30;;;;;;;24.13;13.63;;;15.20;99.90;;;;;;5034599;28;20228;-88
2022/10/31 10:16:08;;;;;;;19.67;13.23;;;15.30;99.90;;;;;;5033975;28;20209;-89
2022/10/31 10:18:44;;;;;;;24.20;13.77;;;15.20;99.90;;;;;;5034159;28;20241;-89
2022/10/31 10:21:22;;;;;;;15.97;12.70;;;15.30;99.90;;;;;;5032703;28;20195;-82
2022/10/31 10:24:01;;;;;;;20.53;12.90;;;15.20;99.90;;;;;;5030994;28;20616;-85
2022/10/31 10:26:36;;;;;;;17.90;12.40;;;15.10;99.90;;;;;;5030653;28;20212;-86
2022/10/31 10:29:25;;;;;;;20.30;12.23;;;15.40;99.90;;;;;;5032696;28;20704;-81
2022/10/31 10:31:55;;;;;;;15.80;11.70;;;15.60;99.90;;;;;;5032763;28;20202;-84
2022/10/31 10:34:27;;;;;;;18.50;12.73;;;15.80;99.90;;;;;;5033206;28;20204;-86
2022/10/31 10:36:58;;;;;;;20.43;12.90;;;15.90;99.90;;;;;;5033772;28;20206;-81
2022/10/31 10:39:30;;;;;;;17.73;12.13;;;15.70;99.90;;;;;;5033760;28;20211;-85
2022/10/31 10:47:38;;;;;;;18.20;12.30;;;15.90;99.90;;;;;;5033176;28;20210;-86
2022/10/31 10:50:11;;;;;;;17.60;12.43;;;15.60;99.90;;;;;;5052961;28;20226;-85
2022/10/31 10:52:47;;;;;;;17.85;13.02;;;15.80;99.90;;;;;;5053290;28;20426;-86
2022/10/31 10:55:19;;;;;;;14.80;11.90;;;15.70;99.90;;;;;;5053779;28;20198;-82
2022/10/31 10:57:56;;;;;;;17.33;11.87;;;15.70;99.90;;;;;;5053411;28;20210;-86
2022/10/31 11:00:24;;;;;;;17.87;11.87;;;15.70;99.90;;;;;;5053365;28;20665;-83
2022/10/31 11:02:54;;;;;;;19.07;11.70;;;15.80;99.90;;;;;;5053654;28;20198;-82
2022/10/31 11:05:26;;;;;;;18.50;12.03;;;15.70;99.90;;;;;;5053288;28;20191;-82
2022/10/31 11:07:53;;;;;;;16.67;12.20;;;15.80;99.90;;;;;;5056412;28;20230;-85
2022/10/31 11:10:20;;;;;;;15.77;11.70;;;15.80;99.90;;;;;;5054139;28;20708;-84
2022/10/31 11:13:06;;;;;;;14.63;11.83;;;15.70;99.90;;;;;;5057399;28;20206;-84
2022/10/31 11:15:37;;;;;;;16.70;11.90;;;15.80;99.90;;;;;;5056744;28;20206;-85
2022/10/31 11:18:06;;;;;;;16.00;11.23;;;16.10;99.90;;;;;;5056729;28;20234;-84
2022/10/31 11:20:35;;;;;;;17.70;11.80;;;16.00;99.90;;;;;;5056929;28;20605;-87
2022/10/31 11:23:17;;;;;;;16.03;12.50;;;16.20;99.90;;;;;;5048790;28;20197;-84
2022/10/31 11:25:51;;;;;;;17.33;12.43;;;16.00;99.90;;;;;;5045138;28;20198;-84
2022/10/31 11:28:18;;;;;;;21.67;11.97;;;16.30;99.90;;;;;;5045210;28;20683;-85
2022/10/31 11:30:47;;;;;;;16.07;11.53;;;16.20;99.90;;;;;;5044696;28;20795;-82
2022/10/31 11:33:20;;;;;;;15.97;11.70;;;16.40;99.90;;;;;;5037018;28;20665;-82
2022/10/31 11:35:50;;;;;;;16.73;12.33;;;16.40;99.90;;;;;;5036677;28;20681;-82
2022/10/31 11:38:21;;;;;;;14.87;12.23;;;16.50;99.90;;;;;;5036614;28;20735;-86
2022/10/31 11:41:04;;;;;;;18.73;11.57;;;16.50;99.90;;;;;;5036503;28;20200;-84
2022/10/31 11:43:31;;;;;;;15.13;12.17;;;16.60;99.90;;;;;;5037103;28;20201;-83
2022/10/31 11:45:58;;;;;;;20.00;11.67;;;16.40;99.90;;;;;;5035840;28;20212;-86
2022/10/31 11:48:26;;;;;;;15.23;11.47;;;16.40;99.90;;;;;;5036288;28;20693;-83
2022/10/31 11:50:56;;;;;;;18.50;11.67;;;16.30;99.90;;;;;;5036076;28;20212;-82
2022/10/31 11:53:28;;;;;;;18.67;12.70;;;16.40;99.90;;;;;;5036408;28;20197;-85
2022/10/31 11:56:10;;;;;;;17.50;11.80;;;16.50;99.90;;;;;;5035750;28;20210;-82
2022/10/31 11:58:37;;;;;;;14.70;11.57;;;16.50;99.90;;;;;;5035766;28;20632;-80
2022/10/31 12:01:04;;;;;;;17.93;12.43;;;16.50;99.90;;;;;;5035800;28;20203;-84
2022/10/31 12:03:52;;;;;;;15.03;11.27;;;16.60;99.90;;;;;;5036173;28;20215;-85
2022/10/31 12:06:24;;;;;;;18.73;11.50;;;16.70;99.90;;;;;;5036303;28;20221;-84
2022/10/31 12:08:51;;;;;;;18.23;11.20;;;16.60;99.90;;;;;;5035920;28;20253;-85
2022/10/31 12:11:43;;;;;;;16.37;11.90;;;16.80;99.90;;;;;;5036143;28;20679;-83
2022/10/31 12:14:22;;;;;;;12.67;10.77;;;17.00;99.90;;;;;;5036225;28;20196;-85
2022/10/31 12:16:55;;;;;;;20.70;11.10;;;17.00;99.90;;;;;;5035517;28;20226;-86
2022/10/31 12:19:36;;;;;;;16.57;10.80;;;17.10;99.90;;;;;;5035188;28;20255;-85
2022/10/31 12:22:09;;;;;;;15.50;11.13;;;17.40;99.90;;;;;;5035408;28;20199;-85
2022/10/31 12:24:52;;;;;;;18.30;11.03;;;17.50;99.90;;;;;;5035112;28;20214;-83
2022/10/31 12:27:34;;;;;;;17.73;11.87;;;17.60;99.90;;;;;;5035431;28;20571;-82
2022/10/31 12:30:16;;;;;;;17.67;10.60;;;17.80;99.90;;;;;;5035444;28;20241;-83
2022/10/31 12:32:56;;;;;;;15.60;9.57;;;17.60;99.90;;;;;;5035410;28;20210;-82
2022/10/31 12:35:33;;;;;;;13.00;9.93;;;17.80;99.90;;;;;;5035660;28;20195;-87
2022/10/31 12:38:25;;;;;;;13.07;9.47;;;17.90;99.90;;;;;;5040101;28;20205;-82
2022/10/31 12:41:11;;;;;;;14.30;9.90;;;18.00;99.90;;;;;;5041483;28;20196;-85
2022/10/31 12:43:45;;;;;;;13.53;10.13;;;18.20;99.90;;;;;;5043995;28;20199;-84
2022/10/31 12:46:25;;;;;;;14.27;10.10;;;18.20;99.90;;;;;;5044037;28;20183;-84
2022/10/31 12:49:22;;;;;;;17.20;11.03;;;18.10;99.90;;;;;;5043208;28;20209;-84